sensor_id;sensor_type;location;lat;lon;timestamp;temperature;humidity
18426;DHT22;9340;48.756;9.226;2023-03-01T00:01:26;-1.40;99.90
18426;DHT22;9340;48.756;9.226;2023-03-01T00:03:53;-1.50;99.90
18426;DHT22;9340;48.756;9.226;2023-03-01T00:06:22;-1.50;99.90
18426;DHT22;9340;48.756;9.226;2023-03-01T00:08:49;-1.40;99.90
18426;DHT22;9340;48.756;9.226;2023-03-01T00:11:17;-1.40;99.90
18426;DHT22;9340;48.756;9.226;2023-03-01T00:13:46;-1.50;99.90
18426;DHT22;9340;48.756;9.226;2023-03-01T00:16:14;-1.50;99.90
18426;DHT22;9340;48.756;9.226;2023-03-01T00:18:42;-1.50;99.90
18426;DHT22;9340;48.756;9.226;2023-03-01T00:21:09;-1.60;99.90
18426;DHT22;9340;48.756;9.226;2023-03-01T00:23:37;-1.60;99.90
18426;DHT22;9340;48.756;9.226;2023-03-01T00:26:07;-1.60;99.90
18426;DHT22;9340;48.756;9.226;2023-03-01T00:28:34;-1.60;99.90
18426;DHT22;9340;48.756;9.226;2023-03-01T00:31:03;-1.60;99.90
18426;DHT22;9340;48.756;9.226;2023-03-01T00:33:30;-1.60;99.90
18426;DHT22;9340;48.756;9.226;2023-03-01T00:35:58;-1.70;99.90
18426;DHT22;9340;48.756;9.226;2023-03-01T00:38:24;-1.80;99.90
18426;DHT22;9340;48.756;9.226;2023-03-01T00:40:52;-1.80;99.90
18426;DHT22;9340;48.756;9.226;2023-03-01T00:43:19;-1.80;99.90
18426;DHT22;9340;48.756;9.226;2023-03-01T00:45:46;-1.80;99.90
18426;DHT22;9340;48.756;9.226;2023-03-01T00:48:12;-1.70;99.90
18426;DHT22;9340;48.756;9.226;2023-03-01T00:50:39;-1.80;99.90
18426;DHT22;9340;48.756;9.226;2023-03-01T00:53:06;-1.80;99.90
18426;DHT22;9340;48.756;9.226;2023-03-01T00:55:32;-1.80;99.90
18426;DHT22;9340;48.756;9.226;2023-03-01T00:58:00;-1.80;99.90
18426;DHT22;9340;48.756;9.226;2023-03-01T01:00:27;-1.80;99.90
18426;DHT22;9340;48.756;9.226;2023-03-01T01:02:54;-1.90;99.90
18426;DHT22;9340;48.756;9.226;2023-03-01T01:05:20;-1.80;99.90
18426;DHT22;9340;48.756;9.226;2023-03-01T01:07:47;-1.70;99.90
18426;DHT22;9340;48.756;9.226;2023-03-01T01:10:14;-1.70;99.90
18426;DHT22;9340;48.756;9.226;2023-03-01T01:12:42;-1.80;99.90
18426;DHT22;9340;48.756;9.226;2023-03-01T01:15:11;-1.90;99.90
18426;DHT22;9340;48.756;9.226;2023-03-01T01:18:01;-1.90;99.90
18426;DHT22;9340;48.756;9.226;2023-03-01T01:20:29;-1.90;99.90
18426;DHT22;9340;48.756;9.226;2023-03-01T01:22:56;-1.90;99.90
18426;DHT22;9340;48.756;9.226;2023-03-01T01:25:23;-2.00;99.90
18426;DHT22;9340;48.756;9.226;2023-03-01T01:27:50;-2.10;99.90
18426;DHT22;9340;48.756;9.226;2023-03-01T01:30:17;-2.10;99.90
18426;DHT22;9340;48.756;9.226;2023-03-01T01:32:43;-2.10;99.90
18426;DHT22;9340;48.756;9.226;2023-03-01T01:35:10;-2.10;99.90
18426;DHT22;9340;48.756;9.226;2023-03-01T01:37:38;-2.20;99.90
18426;DHT22;9340;48.756;9.226;2023-03-01T01:40:06;-2.20;99.90
18426;DHT22;9340;48.756;9.226;2023-03-01T01:42:32;-2.10;99.90
18426;DHT22;9340;48.756;9.226;2023-03-01T01:45:30;-2.00;99.90
18426;DHT22;9340;48.756;9.226;2023-03-01T01:48:00;-1.90;99.90
18426;DHT22;9340;48.756;9.226;2023-03-01T01:50:29;-1.80;99.90
18426;DHT22;9340;48.756;9.226;2023-03-01T01:53:09;-1.70;99.90
18426;DHT22;9340;48.756;9.226;2023-03-01T01:55:37;-1.70;99.90
18426;DHT22;9340;48.756;9.226;2023-03-01T01:58:08;-1.60;99.90
18426;DHT22;9340;48.756;9.226;2023-03-01T02:00:37;-1.40;99.90
18426;DHT22;9340;48.756;9.226;2023-03-01T02:03:07;-1.30;99.90
18426;DHT22;9340;48.756;9.226;2023-03-01T02:05:38;-1.10;99.90
18426;DHT22;9340;48.756;9.226;2023-03-01T02:08:12;-0.90;99.90
18426;DHT22;9340;48.756;9.226;2023-03-01T02:10:40;-0.70;99.90
18426;DHT22;9340;48.756;9.226;2023-03-01T02:13:08;-0.70;99.90
18426;DHT22;9340;48.756;9.226;2023-03-01T02:15:37;-0.60;99.90
18426;DHT22;9340;48.756;9.226;2023-03-01T02:18:05;-0.40;99.90
18426;DHT22;9340;48.756;9.226;2023-03-01T02:20:35;-0.30;99.90
18426;DHT22;9340;48.756;9.226;2023-03-01T02:23:03;-0.30;99.90
18426;DHT22;9340;48.756;9.226;2023-03-01T02:25:37;-0.20;99.90
18426;DHT22;9340;48.756;9.226;2023-03-01T02:30:40;-0.10;99.90
18426;DHT22;9340;48.756;9.226;2023-03-01T02:33:27;-0.10;99.90
18426;DHT22;9340;48.756;9.226;2023-03-01T02:35:54;0.00;99.90
18426;DHT22;9340;48.756;9.226;2023-03-01T02:38:22;0.00;99.90
18426;DHT22;9340;48.756;9.226;2023-03-01T02:40:50;0.10;99.90
18426;DHT22;9340;48.756;9.226;2023-03-01T02:43:19;0.20;99.90
18426;DHT22;9340;48.756;9.226;2023-03-01T02:45:50;0.20;99.90
18426;DHT22;9340;48.756;9.226;2023-03-01T02:48:17;0.30;99.90
18426;DHT22;9340;48.756;9.226;2023-03-01T02:50:59;0.20;99.90
18426;DHT22;9340;48.756;9.226;2023-03-01T02:53:37;0.20;99.90
18426;DHT22;9340;48.756;9.226;2023-03-01T02:56:07;0.40;99.90
18426;DHT22;9340;48.756;9.226;2023-03-01T02:58:38;0.50;99.90
18426;DHT22;9340;48.756;9.226;2023-03-01T03:01:12;0.50;99.90
18426;DHT22;9340;48.756;9.226;2023-03-01T03:03:40;0.40;99.90
18426;DHT22;9340;48.756;9.226;2023-03-01T03:06:07;0.40;99.90
18426;DHT22;9340;48.756;9.226;2023-03-01T03:08:34;0.40;99.90
18426;DHT22;9340;48.756;9.226;2023-03-01T03:11:01;0.40;99.90
18426;DHT22;9340;48.756;9.226;2023-03-01T03:13:27;0.50;99.90
18426;DHT22;9340;48.756;9.226;2023-03-01T03:15:55;0.40;99.90
18426;DHT22;9340;48.756;9.226;2023-03-01T03:18:23;0.50;99.90
18426;DHT22;9340;48.756;9.226;2023-03-01T03:20:52;0.60;99.90
18426;DHT22;9340;48.756;9.226;2023-03-01T03:23:20;0.60;99.90
18426;DHT22;9340;48.756;9.226;2023-03-01T03:25:48;0.60;99.90
18426;DHT22;9340;48.756;9.226;2023-03-01T03:28:16;0.60;99.90
18426;DHT22;9340;48.756;9.226;2023-03-01T03:30:43;0.80;99.90
18426;DHT22;9340;48.756;9.226;2023-03-01T03:33:11;0.70;99.90
18426;DHT22;9340;48.756;9.226;2023-03-01T03:35:42;0.80;99.90
18426;DHT22;9340;48.756;9.226;2023-03-01T03:38:11;0.70;99.90
18426;DHT22;9340;48.756;9.226;2023-03-01T03:40:43;0.80;99.90
18426;DHT22;9340;48.756;9.226;2023-03-01T03:43:12;0.70;99.90
18426;DHT22;9340;48.756;9.226;2023-03-01T03:45:40;0.80;99.90
18426;DHT22;9340;48.756;9.226;2023-03-01T03:48:08;0.80;99.90
18426;DHT22;9340;48.756;9.226;2023-03-01T03:50:36;0.90;99.90
18426;DHT22;9340;48.756;9.226;2023-03-01T03:53:07;0.90;99.90
18426;DHT22;9340;48.756;9.226;2023-03-01T03:55:34;0.80;99.90
18426;DHT22;9340;48.756;9.226;2023-03-01T03:58:05;0.90;99.90
18426;DHT22;9340;48.756;9.226;2023-03-01T04:00:33;1.00;99.90
18426;DHT22;9340;48.756;9.226;2023-03-01T04:03:01;1.00;99.90
18426;DHT22;9340;48.756;9.226;2023-03-01T04:05:28;1.00;99.90
18426;DHT22;9340;48.756;9.226;2023-03-01T04:07:55;0.90;99.90
18426;DHT22;9340;48.756;9.226;2023-03-01T04:10:30;0.90;99.90
18426;DHT22;9340;48.756;9.226;2023-03-01T04:12:57;0.90;99.90
18426;DHT22;9340;48.756;9.226;2023-03-01T04:15:25;1.00;99.90
18426;DHT22;9340;48.756;9.226;2023-03-01T04:17:53;1.00;99.90
18426;DHT22;9340;48.756;9.226;2023-03-01T04:20:22;1.00;99.90
18426;DHT22;9340;48.756;9.226;2023-03-01T04:22:51;0.90;99.90
18426;DHT22;9340;48.756;9.226;2023-03-01T04:25:18;1.00;99.90
18426;DHT22;9340;48.756;9.226;2023-03-01T04:27:46;0.90;99.90
18426;DHT22;9340;48.756;9.226;2023-03-01T04:30:13;0.90;99.90
18426;DHT22;9340;48.756;9.226;2023-03-01T04:32:40;1.00;99.90
18426;DHT22;9340;48.756;9.226;2023-03-01T04:35:07;1.10;99.90
18426;DHT22;9340;48.756;9.226;2023-03-01T04:37:34;1.10;99.90
18426;DHT22;9340;48.756;9.226;2023-03-01T04:40:01;1.10;99.90
18426;DHT22;9340;48.756;9.226;2023-03-01T04:42:37;1.10;99.90
18426;DHT22;9340;48.756;9.226;2023-03-01T04:45:06;1.30;99.90
18426;DHT22;9340;48.756;9.226;2023-03-01T04:47:38;1.30;99.90
18426;DHT22;9340;48.756;9.226;2023-03-01T04:50:06;1.10;99.90
18426;DHT22;9340;48.756;9.226;2023-03-01T04:52:33;1.10;99.90
18426;DHT22;9340;48.756;9.226;2023-03-01T04:55:00;1.20;99.90
18426;DHT22;9340;48.756;9.226;2023-03-01T04:57:26;1.20;99.90
18426;DHT22;9340;48.756;9.226;2023-03-01T04:59:53;1.20;99.90
18426;DHT22;9340;48.756;9.226;2023-03-01T05:02:21;1.30;99.90
18426;DHT22;9340;48.756;9.226;2023-03-01T05:04:47;1.30;99.90
18426;DHT22;9340;48.756;9.226;2023-03-01T05:07:14;1.30;99.90
18426;DHT22;9340;48.756;9.226;2023-03-01T05:09:45;1.30;99.90
18426;DHT22;9340;48.756;9.226;2023-03-01T05:12:11;1.30;99.90
18426;DHT22;9340;48.756;9.226;2023-03-01T05:14:38;1.40;99.90
18426;DHT22;9340;48.756;9.226;2023-03-01T05:17:05;1.40;99.90
18426;DHT22;9340;48.756;9.226;2023-03-01T05:19:34;1.40;99.90
18426;DHT22;9340;48.756;9.226;2023-03-01T05:22:01;1.40;99.90
18426;DHT22;9340;48.756;9.226;2023-03-01T05:24:32;1.40;99.90
18426;DHT22;9340;48.756;9.226;2023-03-01T05:27:00;1.50;99.90
18426;DHT22;9340;48.756;9.226;2023-03-01T05:29:28;1.40;99.90
18426;DHT22;9340;48.756;9.226;2023-03-01T05:31:58;1.40;99.90
18426;DHT22;9340;48.756;9.226;2023-03-01T05:34:28;1.40;99.90
18426;DHT22;9340;48.756;9.226;2023-03-01T05:36:56;1.40;99.90
18426;DHT22;9340;48.756;9.226;2023-03-01T05:39:25;1.50;99.90
18426;DHT22;9340;48.756;9.226;2023-03-01T05:41:53;1.50;99.90
18426;DHT22;9340;48.756;9.226;2023-03-01T05:44:20;1.60;99.90
18426;DHT22;9340;48.756;9.226;2023-03-01T05:46:47;1.60;99.90
18426;DHT22;9340;48.756;9.226;2023-03-01T05:49:15;1.50;99.90
18426;DHT22;9340;48.756;9.226;2023-03-01T05:51:42;1.40;99.90
18426;DHT22;9340;48.756;9.226;2023-03-01T05:54:10;1.40;99.90
18426;DHT22;9340;48.756;9.226;2023-03-01T05:56:37;1.40;99.90
18426;DHT22;9340;48.756;9.226;2023-03-01T05:59:04;1.40;99.90
18426;DHT22;9340;48.756;9.226;2023-03-01T06:01:31;1.40;99.90
18426;DHT22;9340;48.756;9.226;2023-03-01T06:03:58;1.50;99.90
18426;DHT22;9340;48.756;9.226;2023-03-01T06:06:25;1.40;99.90
18426;DHT22;9340;48.756;9.226;2023-03-01T06:08:52;1.50;99.90
18426;DHT22;9340;48.756;9.226;2023-03-01T06:11:21;1.40;99.90
18426;DHT22;9340;48.756;9.226;2023-03-01T06:13:47;1.40;99.90
18426;DHT22;9340;48.756;9.226;2023-03-01T06:16:14;1.50;99.90
18426;DHT22;9340;48.756;9.226;2023-03-01T06:18:41;1.60;99.90
18426;DHT22;9340;48.756;9.226;2023-03-01T06:21:08;1.60;99.90
18426;DHT22;9340;48.756;9.226;2023-03-01T06:23:35;1.60;99.90
18426;DHT22;9340;48.756;9.226;2023-03-01T06:26:05;1.70;99.90
18426;DHT22;9340;48.756;9.226;2023-03-01T06:28:34;1.80;99.90
18426;DHT22;9340;48.756;9.226;2023-03-01T06:31:00;1.80;99.90
18426;DHT22;9340;48.756;9.226;2023-03-01T06:33:27;1.70;99.90
18426;DHT22;9340;48.756;9.226;2023-03-01T06:35:55;1.50;99.90
18426;DHT22;9340;48.756;9.226;2023-03-01T06:38:21;1.50;99.90
18426;DHT22;9340;48.756;9.226;2023-03-01T06:40:52;1.50;99.90
18426;DHT22;9340;48.756;9.226;2023-03-01T06:43:19;1.50;99.90
18426;DHT22;9340;48.756;9.226;2023-03-01T06:45:47;1.60;99.90
18426;DHT22;9340;48.756;9.226;2023-03-01T06:48:14;1.70;99.90
18426;DHT22;9340;48.756;9.226;2023-03-01T06:50:40;1.90;99.90
18426;DHT22;9340;48.756;9.226;2023-03-01T06:53:07;2.00;99.90
18426;DHT22;9340;48.756;9.226;2023-03-01T06:55:33;2.10;99.90
18426;DHT22;9340;48.756;9.226;2023-03-01T06:58:02;2.20;99.90
18426;DHT22;9340;48.756;9.226;2023-03-01T07:00:29;2.20;99.90
18426;DHT22;9340;48.756;9.226;2023-03-01T07:03:00;2.40;99.90
18426;DHT22;9340;48.756;9.226;2023-03-01T07:05:28;2.40;99.90
18426;DHT22;9340;48.756;9.226;2023-03-01T07:07:54;2.20;99.90
18426;DHT22;9340;48.756;9.226;2023-03-01T07:10:21;2.30;99.90
18426;DHT22;9340;48.756;9.226;2023-03-01T07:12:48;2.20;99.90
18426;DHT22;9340;48.756;9.226;2023-03-01T07:15:15;2.10;99.90
18426;DHT22;9340;48.756;9.226;2023-03-01T07:17:41;2.10;99.90
18426;DHT22;9340;48.756;9.226;2023-03-01T07:20:12;2.00;99.90
18426;DHT22;9340;48.756;9.226;2023-03-01T07:22:40;2.00;99.90
18426;DHT22;9340;48.756;9.226;2023-03-01T07:25:08;1.90;99.90
18426;DHT22;9340;48.756;9.226;2023-03-01T07:27:34;1.90;99.90
18426;DHT22;9340;48.756;9.226;2023-03-01T07:30:01;1.80;99.90
18426;DHT22;9340;48.756;9.226;2023-03-01T07:32:28;1.80;99.90
18426;DHT22;9340;48.756;9.226;2023-03-01T07:34:54;1.80;99.90
18426;DHT22;9340;48.756;9.226;2023-03-01T07:37:22;1.80;99.90
18426;DHT22;9340;48.756;9.226;2023-03-01T07:39:49;1.90;99.90
18426;DHT22;9340;48.756;9.226;2023-03-01T07:42:15;1.90;99.90
18426;DHT22;9340;48.756;9.226;2023-03-01T07:44:42;2.00;99.90
18426;DHT22;9340;48.756;9.226;2023-03-01T07:47:09;2.00;99.90
18426;DHT22;9340;48.756;9.226;2023-03-01T07:49:35;1.90;99.90
18426;DHT22;9340;48.756;9.226;2023-03-01T07:52:02;2.00;99.90
18426;DHT22;9340;48.756;9.226;2023-03-01T07:54:30;2.10;99.90
18426;DHT22;9340;48.756;9.226;2023-03-01T07:56:57;2.10;99.90
18426;DHT22;9340;48.756;9.226;2023-03-01T07:59:24;2.00;99.90
18426;DHT22;9340;48.756;9.226;2023-03-01T08:01:54;2.00;99.90
18426;DHT22;9340;48.756;9.226;2023-03-01T08:04:21;2.10;99.90
18426;DHT22;9340;48.756;9.226;2023-03-01T08:06:48;2.20;99.90
18426;DHT22;9340;48.756;9.226;2023-03-01T08:09:15;2.20;99.90
18426;DHT22;9340;48.756;9.226;2023-03-01T08:11:43;2.20;99.90
18426;DHT22;9340;48.756;9.226;2023-03-01T08:14:10;2.20;99.90
18426;DHT22;9340;48.756;9.226;2023-03-01T08:16:37;2.30;99.90
18426;DHT22;9340;48.756;9.226;2023-03-01T08:19:04;2.30;99.90
18426;DHT22;9340;48.756;9.226;2023-03-01T08:21:31;2.20;99.90
18426;DHT22;9340;48.756;9.226;2023-03-01T08:24:00;2.30;99.90
18426;DHT22;9340;48.756;9.226;2023-03-01T08:26:26;2.40;99.90
18426;DHT22;9340;48.756;9.226;2023-03-01T08:28:54;2.50;99.90
18426;DHT22;9340;48.756;9.226;2023-03-01T08:31:23;2.60;99.90
18426;DHT22;9340;48.756;9.226;2023-03-01T08:33:52;2.60;99.90
18426;DHT22;9340;48.756;9.226;2023-03-01T08:36:21;2.70;99.90
18426;DHT22;9340;48.756;9.226;2023-03-01T08:38:48;2.80;99.90
18426;DHT22;9340;48.756;9.226;2023-03-01T08:41:15;2.80;99.90
18426;DHT22;9340;48.756;9.226;2023-03-01T08:43:41;2.80;99.90
18426;DHT22;9340;48.756;9.226;2023-03-01T08:46:10;2.80;99.90
18426;DHT22;9340;48.756;9.226;2023-03-01T08:48:36;3.00;99.90
18426;DHT22;9340;48.756;9.226;2023-03-01T08:51:10;3.10;99.90
18426;DHT22;9340;48.756;9.226;2023-03-01T08:53:38;3.10;99.90
18426;DHT22;9340;48.756;9.226;2023-03-01T08:56:05;3.10;99.90
18426;DHT22;9340;48.756;9.226;2023-03-01T08:58:32;3.10;99.90
18426;DHT22;9340;48.756;9.226;2023-03-01T09:00:59;3.20;99.90
18426;DHT22;9340;48.756;9.226;2023-03-01T09:03:28;3.20;99.90
18426;DHT22;9340;48.756;9.226;2023-03-01T09:06:00;3.30;99.90
18426;DHT22;9340;48.756;9.226;2023-03-01T09:08:27;3.30;99.90
18426;DHT22;9340;48.756;9.226;2023-03-01T09:10:54;3.30;99.90
18426;DHT22;9340;48.756;9.226;2023-03-01T09:13:21;3.30;99.90
18426;DHT22;9340;48.756;9.226;2023-03-01T09:15:50;3.40;99.90
18426;DHT22;9340;48.756;9.226;2023-03-01T09:18:17;3.60;99.90
18426;DHT22;9340;48.756;9.226;2023-03-01T09:20:45;3.70;99.90
18426;DHT22;9340;48.756;9.226;2023-03-01T09:23:11;3.80;99.90
18426;DHT22;9340;48.756;9.226;2023-03-01T09:25:38;3.70;99.90
18426;DHT22;9340;48.756;9.226;2023-03-01T09:28:05;3.80;99.90
18426;DHT22;9340;48.756;9.226;2023-03-01T09:30:31;3.90;99.90
18426;DHT22;9340;48.756;9.226;2023-03-01T09:32:58;4.10;99.90
18426;DHT22;9340;48.756;9.226;2023-03-01T09:35:25;4.10;99.90
18426;DHT22;9340;48.756;9.226;2023-03-01T09:37:53;4.20;99.90
18426;DHT22;9340;48.756;9.226;2023-03-01T09:40:21;4.20;99.90
18426;DHT22;9340;48.756;9.226;2023-03-01T09:42:54;4.40;99.90
18426;DHT22;9340;48.756;9.226;2023-03-01T09:45:28;4.50;99.90
18426;DHT22;9340;48.756;9.226;2023-03-01T09:47:56;4.60;99.90
18426;DHT22;9340;48.756;9.226;2023-03-01T09:50:26;4.70;99.90
18426;DHT22;9340;48.756;9.226;2023-03-01T09:53:02;4.70;99.90
18426;DHT22;9340;48.756;9.226;2023-03-01T09:55:32;4.60;99.90
18426;DHT22;9340;48.756;9.226;2023-03-01T09:58:06;4.70;99.90
18426;DHT22;9340;48.756;9.226;2023-03-01T10:00:43;4.70;99.90
18426;DHT22;9340;48.756;9.226;2023-03-01T10:03:14;4.70;99.90
18426;DHT22;9340;48.756;9.226;2023-03-01T10:05:55;4.70;99.90
18426;DHT22;9340;48.756;9.226;2023-03-01T10:08:31;4.70;99.90
18426;DHT22;9340;48.756;9.226;2023-03-01T10:11:02;4.80;99.90
18426;DHT22;9340;48.756;9.226;2023-03-01T10:13:33;4.90;99.90
18426;DHT22;9340;48.756;9.226;2023-03-01T10:16:09;4.90;99.90
18426;DHT22;9340;48.756;9.226;2023-03-01T10:18:37;4.80;99.90
18426;DHT22;9340;48.756;9.226;2023-03-01T10:21:14;4.80;99.90
18426;DHT22;9340;48.756;9.226;2023-03-01T10:23:43;4.80;99.90
18426;DHT22;9340;48.756;9.226;2023-03-01T10:26:21;4.90;99.90
18426;DHT22;9340;48.756;9.226;2023-03-01T10:28:54;5.10;99.90
18426;DHT22;9340;48.756;9.226;2023-03-01T10:31:30;5.20;99.90
18426;DHT22;9340;48.756;9.226;2023-03-01T10:34:02;5.40;99.90
18426;DHT22;9340;48.756;9.226;2023-03-01T10:36:33;5.40;99.90
18426;DHT22;9340;48.756;9.226;2023-03-01T10:39:05;5.40;99.90
18426;DHT22;9340;48.756;9.226;2023-03-01T10:41:52;5.50;99.90
18426;DHT22;9340;48.756;9.226;2023-03-01T10:44:39;5.60;99.90
18426;DHT22;9340;48.756;9.226;2023-03-01T10:47:13;5.70;99.90
18426;DHT22;9340;48.756;9.226;2023-03-01T10:49:52;5.70;99.90
18426;DHT22;9340;48.756;9.226;2023-03-01T10:52:21;5.70;99.90
18426;DHT22;9340;48.756;9.226;2023-03-01T10:54:54;5.60;99.90
18426;DHT22;9340;48.756;9.226;2023-03-01T10:57:29;5.80;99.90
18426;DHT22;9340;48.756;9.226;2023-03-01T11:00:13;6.00;99.90
18426;DHT22;9340;48.756;9.226;2023-03-01T11:02:42;6.10;99.90
18426;DHT22;9340;48.756;9.226;2023-03-01T11:05:17;6.20;99.90
18426;DHT22;9340;48.756;9.226;2023-03-01T11:07:48;6.30;99.90
18426;DHT22;9340;48.756;9.226;2023-03-01T11:10:19;6.30;99.90
18426;DHT22;9340;48.756;9.226;2023-03-01T11:12:46;6.30;99.90
18426;DHT22;9340;48.756;9.226;2023-03-01T11:15:22;6.10;99.90
18426;DHT22;9340;48.756;9.226;2023-03-01T11:17:49;6.10;99.90
18426;DHT22;9340;48.756;9.226;2023-03-01T11:20:24;6.20;99.90
18426;DHT22;9340;48.756;9.226;2023-03-01T11:22:54;6.40;99.90
18426;DHT22;9340;48.756;9.226;2023-03-01T11:25:25;6.60;99.90
18426;DHT22;9340;48.756;9.226;2023-03-01T11:27:53;6.70;99.90
18426;DHT22;9340;48.756;9.226;2023-03-01T11:30:24;6.60;99.90
18426;DHT22;9340;48.756;9.226;2023-03-01T11:32:58;6.70;99.90
18426;DHT22;9340;48.756;9.226;2023-03-01T11:35:28;6.80;99.90
18426;DHT22;9340;48.756;9.226;2023-03-01T11:38:05;6.80;99.90
18426;DHT22;9340;48.756;9.226;2023-03-01T11:40:42;6.90;99.90
18426;DHT22;9340;48.756;9.226;2023-03-01T11:43:15;7.10;99.90
18426;DHT22;9340;48.756;9.226;2023-03-01T11:45:51;7.20;99.90
18426;DHT22;9340;48.756;9.226;2023-03-01T11:48:38;7.20;99.90
18426;DHT22;9340;48.756;9.226;2023-03-01T11:51:09;7.30;99.90
18426;DHT22;9340;48.756;9.226;2023-03-01T11:54:04;7.30;99.90
18426;DHT22;9340;48.756;9.226;2023-03-01T11:56:35;7.40;99.90
18426;DHT22;9340;48.756;9.226;2023-03-01T11:59:20;7.40;99.90
18426;DHT22;9340;48.756;9.226;2023-03-01T12:07:58;7.60;99.90
18426;DHT22;9340;48.756;9.226;2023-03-01T12:10:28;7.70;99.90
18426;DHT22;9340;48.756;9.226;2023-03-01T12:13:13;7.80;99.90
18426;DHT22;9340;48.756;9.226;2023-03-01T12:16:01;7.80;99.90
18426;DHT22;9340;48.756;9.226;2023-03-01T12:18:57;7.80;99.90
18426;DHT22;9340;48.756;9.226;2023-03-01T12:21:37;7.70;99.90
18426;DHT22;9340;48.756;9.226;2023-03-01T12:24:34;7.70;99.90
18426;DHT22;9340;48.756;9.226;2023-03-01T12:27:19;7.80;99.90
18426;DHT22;9340;48.756;9.226;2023-03-01T12:29:54;7.80;99.90
18426;DHT22;9340;48.756;9.226;2023-03-01T12:32:36;7.90;99.90
18426;DHT22;9340;48.756;9.226;2023-03-01T12:35:30;8.00;99.90
18426;DHT22;9340;48.756;9.226;2023-03-01T12:38:13;8.00;99.90
18426;DHT22;9340;48.756;9.226;2023-03-01T12:41:05;8.10;99.90
18426;DHT22;9340;48.756;9.226;2023-03-01T12:43:47;8.20;99.90
18426;DHT22;9340;48.756;9.226;2023-03-01T12:46:28;8.30;99.90
18426;DHT22;9340;48.756;9.226;2023-03-01T12:49:07;8.40;99.90
18426;DHT22;9340;48.756;9.226;2023-03-01T12:51:36;8.30;99.90
18426;DHT22;9340;48.756;9.226;2023-03-01T12:54:11;8.20;99.90
18426;DHT22;9340;48.756;9.226;2023-03-01T12:56:40;8.20;99.90
18426;DHT22;9340;48.756;9.226;2023-03-01T12:59:15;8.20;99.90
18426;DHT22;9340;48.756;9.226;2023-03-01T13:01:49;8.20;99.90
18426;DHT22;9340;48.756;9.226;2023-03-01T13:04:27;8.20;99.90
18426;DHT22;9340;48.756;9.226;2023-03-01T13:07:11;8.40;99.90
18426;DHT22;9340;48.756;9.226;2023-03-01T13:09:44;8.40;99.90
18426;DHT22;9340;48.756;9.226;2023-03-01T13:12:49;8.40;99.90
18426;DHT22;9340;48.756;9.226;2023-03-01T13:15:31;8.40;99.90
18426;DHT22;9340;48.756;9.226;2023-03-01T13:18:02;8.60;99.90
18426;DHT22;9340;48.756;9.226;2023-03-01T13:20:34;8.60;99.90
18426;DHT22;9340;48.756;9.226;2023-03-01T13:23:04;8.60;99.90
18426;DHT22;9340;48.756;9.226;2023-03-01T13:25:32;8.60;99.90
18426;DHT22;9340;48.756;9.226;2023-03-01T13:31:07;8.50;99.90
18426;DHT22;9340;48.756;9.226;2023-03-01T13:36:47;8.60;99.90
18426;DHT22;9340;48.756;9.226;2023-03-01T13:39:32;8.60;99.90
18426;DHT22;9340;48.756;9.226;2023-03-01T13:42:31;8.70;99.90
18426;DHT22;9340;48.756;9.226;2023-03-01T13:44:57;8.70;99.90
18426;DHT22;9340;48.756;9.226;2023-03-01T13:47:24;8.70;99.90
18426;DHT22;9340;48.756;9.226;2023-03-01T13:49:56;8.70;99.90
18426;DHT22;9340;48.756;9.226;2023-03-01T13:52:40;8.70;99.90
18426;DHT22;9340;48.756;9.226;2023-03-01T13:55:17;8.80;99.90
18426;DHT22;9340;48.756;9.226;2023-03-01T13:57:46;8.70;99.90
18426;DHT22;9340;48.756;9.226;2023-03-01T14:00:29;8.70;99.90
18426;DHT22;9340;48.756;9.226;2023-03-01T14:03:01;8.60;99.90
18426;DHT22;9340;48.756;9.226;2023-03-01T14:05:30;8.60;99.90
18426;DHT22;9340;48.756;9.226;2023-03-01T14:07:57;8.60;99.90
18426;DHT22;9340;48.756;9.226;2023-03-01T14:10:27;8.50;99.90
18426;DHT22;9340;48.756;9.226;2023-03-01T14:12:59;8.50;99.90
18426;DHT22;9340;48.756;9.226;2023-03-01T14:15:30;8.50;99.90
18426;DHT22;9340;48.756;9.226;2023-03-01T14:18:02;8.40;99.90
18426;DHT22;9340;48.756;9.226;2023-03-01T14:20:37;8.50;99.90
18426;DHT22;9340;48.756;9.226;2023-03-01T14:23:11;8.50;99.90
18426;DHT22;9340;48.756;9.226;2023-03-01T14:25:38;8.60;99.90
18426;DHT22;9340;48.756;9.226;2023-03-01T14:28:16;8.50;99.90
18426;DHT22;9340;48.756;9.226;2023-03-01T14:30:45;8.50;99.90
18426;DHT22;9340;48.756;9.226;2023-03-01T14:33:23;8.40;99.90
18426;DHT22;9340;48.756;9.226;2023-03-01T14:35:57;8.40;99.90
18426;DHT22;9340;48.756;9.226;2023-03-01T14:38:31;8.30;99.90
18426;DHT22;9340;48.756;9.226;2023-03-01T14:41:03;8.30;99.90
18426;DHT22;9340;48.756;9.226;2023-03-01T14:43:30;8.30;99.90
18426;DHT22;9340;48.756;9.226;2023-03-01T14:45:57;8.30;99.90
18426;DHT22;9340;48.756;9.226;2023-03-01T14:48:24;8.30;99.90
18426;DHT22;9340;48.756;9.226;2023-03-01T14:50:54;8.20;99.90
18426;DHT22;9340;48.756;9.226;2023-03-01T14:53:24;8.30;99.90
18426;DHT22;9340;48.756;9.226;2023-03-01T14:55:52;8.20;99.90
18426;DHT22;9340;48.756;9.226;2023-03-01T14:58:21;8.20;99.90
18426;DHT22;9340;48.756;9.226;2023-03-01T15:00:51;8.20;99.90
18426;DHT22;9340;48.756;9.226;2023-03-01T15:03:28;8.20;99.90
18426;DHT22;9340;48.756;9.226;2023-03-01T15:05:58;8.20;99.90
18426;DHT22;9340;48.756;9.226;2023-03-01T15:08:27;8.20;99.90
18426;DHT22;9340;48.756;9.226;2023-03-01T15:11:01;8.20;99.90
18426;DHT22;9340;48.756;9.226;2023-03-01T15:13:31;8.20;99.90
18426;DHT22;9340;48.756;9.226;2023-03-01T15:16:04;8.10;99.90
18426;DHT22;9340;48.756;9.226;2023-03-01T15:18:32;8.10;99.90
18426;DHT22;9340;48.756;9.226;2023-03-01T15:21:08;8.10;99.90
18426;DHT22;9340;48.756;9.226;2023-03-01T15:23:37;8.00;99.90
18426;DHT22;9340;48.756;9.226;2023-03-01T15:26:05;8.10;99.90
18426;DHT22;9340;48.756;9.226;2023-03-01T15:28:34;8.00;99.90
18426;DHT22;9340;48.756;9.226;2023-03-01T15:31:18;8.00;99.90
18426;DHT22;9340;48.756;9.226;2023-03-01T15:33:45;7.90;99.90
18426;DHT22;9340;48.756;9.226;2023-03-01T15:36:41;7.90;99.90
18426;DHT22;9340;48.756;9.226;2023-03-01T15:39:36;7.90;99.90
18426;DHT22;9340;48.756;9.226;2023-03-01T15:42:05;7.90;99.90
18426;DHT22;9340;48.756;9.226;2023-03-01T15:44:34;7.90;99.90
18426;DHT22;9340;48.756;9.226;2023-03-01T15:47:01;7.90;99.90
18426;DHT22;9340;48.756;9.226;2023-03-01T15:49:36;7.90;99.90
18426;DHT22;9340;48.756;9.226;2023-03-01T15:52:08;7.80;99.90
18426;DHT22;9340;48.756;9.226;2023-03-01T15:54:37;7.80;99.90
18426;DHT22;9340;48.756;9.226;2023-03-01T15:57:10;7.80;99.90
18426;DHT22;9340;48.756;9.226;2023-03-01T15:59:38;7.70;99.90
18426;DHT22;9340;48.756;9.226;2023-03-01T16:02:08;7.70;99.90
18426;DHT22;9340;48.756;9.226;2023-03-01T16:04:35;7.60;99.90
18426;DHT22;9340;48.756;9.226;2023-03-01T16:07:02;7.60;99.90
18426;DHT22;9340;48.756;9.226;2023-03-01T16:09:30;7.50;99.90
18426;DHT22;9340;48.756;9.226;2023-03-01T16:11:57;7.40;99.90
18426;DHT22;9340;48.756;9.226;2023-03-01T16:14:24;7.40;99.90
18426;DHT22;9340;48.756;9.226;2023-03-01T16:16:51;7.40;99.90
18426;DHT22;9340;48.756;9.226;2023-03-01T16:19:17;7.40;99.90
18426;DHT22;9340;48.756;9.226;2023-03-01T16:21:45;7.30;99.90
18426;DHT22;9340;48.756;9.226;2023-03-01T16:24:14;7.20;99.90
18426;DHT22;9340;48.756;9.226;2023-03-01T16:26:42;7.20;99.90
18426;DHT22;9340;48.756;9.226;2023-03-01T16:29:09;7.10;99.90
18426;DHT22;9340;48.756;9.226;2023-03-01T16:31:35;7.10;99.90
18426;DHT22;9340;48.756;9.226;2023-03-01T16:34:02;7.10;99.90
18426;DHT22;9340;48.756;9.226;2023-03-01T16:36:29;7.00;99.90